首页
METAR-TAF:

METAR-TAF

机场 :

佛罗伦萨-佩雷托拉机场

佛罗伦萨, 意大利

纬度: 43-48N, 经度: 011-12E, 海拔: 40米

当前天气观测

该预报发布于23分钟前的21:20 UTC
风速1节,风向多变
温度 5°C
湿度 41%
气压 1018 hPa
能见度10公里或以上
1500米以下无云,无积雨云

METAR: LIRQ 012120Z VRB01KT CAVOK 05/M07 Q1018

时间: 23:43 (21:43 UTC)

预报

该预报发布于4小时和43分钟前的17:00 UTC
预报有效从01日的 18点(UTC)到 02日的 18点(UTC)
风速14节,风向东北
能见度10公里或以上
少量云层高于3000英尺
成为
从 01日的 18点(UTC)到 01日的 20点(UTC)
风速5节,风向多变

TAF: LIRQ 011700Z 0118/0218 04014KT 9999 FEW030 BECMG 0118/0120 VRB05KT

超过4000个机场的气象观测和天气预报(METAR&TAF报告)。

可查询的气象台以黄色和红色小点在地图上表示。

将鼠标移到小点上方,可查看气象台名称。

然后点击查看天气观测和预报。

如需切换地图:点击带黑十字的绿色按钮放大地图;点击带横线的绿色按钮缩小地图;或者点击绿色箭头查看邻近地区的地图。


METAR-TAF: